Time;durP1;ratioP1;P1;durP2;ratioP2;P2;SDS_P1;SDS_P2;PMS_P1;PMS_P2;Temp;Humidity;BMP_temperature;BMP_pressure;BME280_temperature;BME280_humidity;BME280_pressure;Samples;Min_cycle;Max_cycle;Signal;HPM_P1;HPM_P2
2022/03/12 06:28:21;;;;;;;37.03;13.07;;;;;;;36.02;43.22;100773.91;6150235;22;2114044;-68
2022/03/12 06:30:48;;;;;;;25.43;16.20;;;;;;;36.06;42.66;100783.84;6242607;23;20164;-69
2022/03/12 06:33:18;;;;;;;26.60;15.23;;;;;;;36.01;43.08;100799.31;6239368;23;20393;-68
2022/03/12 06:35:45;;;;;;;29.17;14.27;;;;;;;36.01;42.91;100800.13;6242191;23;20418;-67
2022/03/12 06:38:12;;;;;;;33.00;13.87;;;;;;;36.20;42.03;100791.19;6217051;23;20717;-68
2022/03/12 06:40:38;;;;;;;26.80;13.50;;;;;;;36.29;41.39;100806.44;6242491;23;20375;-69
2022/03/12 06:43:09;;;;;;;19.97;11.43;;;;;;;36.36;41.12;100806.03;6242353;23;20414;-67
2022/03/12 06:45:36;;;;;;;25.17;10.90;;;;;;;36.41;41.43;100808.69;6242308;23;20401;-69
2022/03/12 06:48:03;;;;;;;23.97;12.83;;;;;;;36.43;41.74;100803.78;6242208;23;20374;-69
2022/03/12 06:50:30;;;;;;;25.63;11.00;;;;;;;36.20;39.62;100794.69;6242194;23;20461;-69
2022/03/12 06:52:56;;;;;;;21.90;11.00;;;;;;;36.08;41.35;100818.66;6243515;23;20767;-69
2022/03/12 06:55:29;;;;;;;19.17;13.70;;;;;;;36.27;40.85;100826.72;6244291;23;20448;-67
2022/03/12 06:57:57;;;;;;;15.30;10.17;;;;;;;36.44;40.43;100826.19;6244250;23;20374;-68
2022/03/12 07:00:30;;;;;;;28.93;10.57;;;;;;;36.39;40.52;100837.06;6244221;23;20409;-68
2022/03/12 07:02:57;;;;;;;22.13;12.33;;;;;;;36.34;41.03;100837.97;6244195;23;20461;-69
2022/03/12 07:05:24;;;;;;;16.13;9.27;;;;;;;36.50;40.71;100843.91;6243225;22;20386;-68
2022/03/12 07:07:50;;;;;;;16.33;9.87;;;;;;;36.50;40.34;100847.44;6244947;22;20742;-68
2022/03/12 07:10:17;;;;;;;15.00;10.60;;;;;;;36.50;41.09;100852.81;6243401;23;20379;-69
2022/03/12 07:12:44;;;;;;;21.07;12.40;;;;;;;36.38;40.32;100851.66;6243272;23;20465;-72
2022/03/12 07:15:12;;;;;;;24.63;11.77;;;;;;;36.44;40.53;100864.81;6243673;23;20472;-72
2022/03/12 07:17:38;;;;;;;18.07;9.90;;;;;;;36.55;40.24;100868.16;6242024;23;20933;-70
2022/03/12 07:20:05;;;;;;;23.90;12.37;;;;;;;36.63;40.27;100875.56;6241488;23;20743;-70
2022/03/12 07:22:32;;;;;;;24.80;12.40;;;;;;;36.76;39.64;100880.22;6241671;23;20457;-70
2022/03/12 07:24:58;;;;;;;26.57;10.87;;;;;;;36.71;39.61;100879.50;6243152;23;20560;-69
2022/03/12 07:27:25;;;;;;;14.90;8.53;;;;;;;36.85;39.37;100888.44;6236399;23;20915;-73
2022/03/12 07:29:54;;;;;;;21.20;10.60;;;;;;;36.79;39.34;100887.72;6212803;23;20448;-70
2022/03/12 07:32:20;;;;;;;19.73;11.93;;;;;;;36.81;39.36;100880.13;6211837;23;20399;-71
2022/03/12 07:34:48;;;;;;;23.20;9.60;;;;;;;36.73;39.19;100888.13;6211288;23;20390;-72
2022/03/12 07:37:14;;;;;;;17.80;9.97;;;;;;;36.76;39.40;100879.41;6212703;23;20435;-71
2022/03/12 07:39:41;;;;;;;27.03;11.30;;;;;;;36.85;39.86;100881.13;6213232;23;20380;-70
2022/03/12 07:42:07;;;;;;;22.70;9.90;;;;;;;36.64;40.00;100879.06;6214707;23;20372;-70
2022/03/12 07:44:34;;;;;;;17.80;9.07;;;;;;;36.43;40.38;100876.72;6214001;23;20461;-70
2022/03/12 07:47:00;;;;;;;20.50;9.07;;;;;;;36.44;40.57;100870.22;6213286;23;20407;-72
2022/03/12 07:49:28;;;;;;;19.20;10.17;;;;;;;36.52;40.04;100866.88;6210036;23;20891;-70
2022/03/12 07:51:54;;;;;;;14.00;10.23;;;;;;;36.51;40.28;100859.81;6211615;23;20413;-69
2022/03/12 07:54:20;;;;;;;16.80;7.80;;;;;;;36.54;41.61;100855.75;6214756;23;20418;-72
2022/03/12 07:56:47;;;;;;;18.40;8.67;;;;;;;36.49;41.11;100851.22;6212365;23;20446;-70
2022/03/12 07:59:14;;;;;;;31.63;10.23;;;;;;;36.55;41.00;100849.25;6214130;23;20907;-74
2022/03/12 08:01:40;;;;;;;21.80;9.83;;;;;;;36.63;41.22;100845.06;6214832;23;20407;-69
2022/03/12 08:04:07;;;;;;;21.40;11.80;;;;;;;36.72;40.93;100840.56;6213322;23;20469;-71
2022/03/12 08:06:36;;;;;;;17.47;9.77;;;;;;;36.94;41.01;100829.91;6212696;23;20380;-71
2022/03/12 08:09:03;;;;;;;21.23;10.37;;;;;;;36.89;41.07;100834.59;6212223;23;20380;-67
2022/03/12 08:11:30;;;;;;;20.97;10.00;;;;;;;36.65;40.42;100827.47;6213904;23;20351;-70
2022/03/12 08:14:15;;;;;;;20.83;10.27;;;;;;;36.82;40.92;100827.66;6214498;23;20430;-68
2022/03/12 08:16:44;;;;;;;22.93;10.63;;;;;;;36.91;40.14;100824.31;6211597;23;20529;-70
2022/03/12 08:19:11;;;;;;;20.93;10.70;;;;;;;36.87;40.94;100826.78;6187954;23;20387;-71
2022/03/12 08:21:38;;;;;;;25.03;11.10;;;;;;;36.92;40.42;100831.31;6212991;23;20773;-68
2022/03/12 08:24:05;;;;;;;22.03;11.63;;;;;;;36.99;40.59;100837.13;6214667;23;20359;-68
2022/03/12 08:26:34;;;;;;;25.67;11.80;;;;;;;36.98;40.41;100847.13;6213087;23;20442;-71
2022/03/12 08:29:00;;;;;;;22.40;10.50;;;;;;;37.06;39.57;100853.75;6213170;23;20442;-70
2022/03/12 08:31:26;;;;;;;26.97;14.53;;;;;;;37.02;40.39;100850.84;6213900;23;20763;-68
2022/03/12 08:33:53;;;;;;;21.17;11.10;;;;;;;37.01;40.31;100851.13;6214720;23;20356;-69
2022/03/12 08:36:20;;;;;;;22.23;12.17;;;;;;;37.10;40.09;100843.94;6212369;23;20782;-69
2022/03/12 08:38:47;;;;;;;20.77;10.47;;;;;;;36.96;40.30;100849.34;6212135;23;20768;-67
2022/03/12 08:41:13;;;;;;;24.10;13.53;;;;;;;37.07;40.27;100863.44;6211523;23;20391;-69
2022/03/12 08:43:42;;;;;;;17.43;10.87;;;;;;;37.08;40.27;100868.59;6213230;23;20838;-68
2022/03/12 08:46:09;;;;;;;19.67;9.97;;;;;;;37.16;40.13;100885.22;6211234;23;20440;-69
2022/03/12 08:48:36;;;;;;;16.50;9.60;;;;;;;37.04;40.32;100883.78;6187613;23;20371;-67
2022/03/12 08:51:03;;;;;;;17.03;9.27;;;;;;;37.17;39.85;100884.91;6212933;23;20379;-66
2022/03/12 08:53:29;;;;;;;22.63;9.57;;;;;;;37.13;41.28;100892.00;6212783;23;20384;-71
2022/03/12 08:55:56;;;;;;;20.83;10.57;;;;;;;37.05;39.79;100893.50;6212650;23;20419;-67
2022/03/12 08:58:23;;;;;;;15.70;9.90;;;;;;;36.88;40.66;100895.19;6212678;23;20759;-69
2022/03/12 09:00:52;;;;;;;24.20;10.07;;;;;;;36.98;40.17;100893.09;6212658;23;20459;-66
2022/03/12 09:03:20;;;;;;;15.60;9.37;;;;;;;36.83;40.30;100902.28;6211512;23;20383;-69
2022/03/12 09:05:51;;;;;;;18.03;10.87;;;;;;;36.83;39.82;100910.38;6214337;23;20367;-69
2022/03/12 09:08:19;;;;;;;19.00;8.37;;;;;;;37.04;40.11;100908.13;6212652;23;20381;-69
2022/03/12 09:10:46;;;;;;;17.73;9.60;;;;;;;36.95;39.77;100901.78;6211428;23;20706;-67
2022/03/12 09:13:15;;;;;;;30.23;12.07;;;;;;;36.90;41.01;100901.13;6214349;23;20364;-70
2022/03/12 09:15:41;;;;;;;16.93;9.33;;;;;;;36.87;41.25;100899.78;6210800;23;20426;-66
2022/03/12 09:18:10;;;;;;;22.63;9.30;;;;;;;36.91;41.18;100905.41;6212593;23;20855;-71
2022/03/12 09:20:57;;;;;;;17.00;9.27;;;;;;;36.85;40.69;100901.97;6212709;23;20379;-68
2022/03/12 09:23:23;;;;;;;18.00;9.77;;;;;;;36.86;40.97;100911.69;6213222;23;20764;-68
2022/03/12 09:25:50;;;;;;;15.47;9.43;;;;;;;37.13;41.42;100886.59;6213042;23;20363;-69
2022/03/12 09:28:19;;;;;;;23.77;10.33;;;;;;;37.03;41.15;100882.19;6212048;23;20447;-71
2022/03/12 09:30:51;;;;;;;23.73;10.13;;;;;;;36.93;40.52;100886.97;6212646;23;20437;-71
2022/03/12 09:33:22;;;;;;;18.43;9.83;;;;;;;36.79;40.92;100893.13;6212430;23;20379;-71
2022/03/12 09:35:50;;;;;;;15.50;8.87;;;;;;;36.86;42.17;100904.38;6211802;23;20427;-67
2022/03/12 09:38:16;;;;;;;16.80;8.77;;;;;;;37.05;41.87;100917.84;6187166;23;20388;-71
2022/03/12 09:40:44;;;;;;;17.07;7.40;;;;;;;36.94;41.92;100911.00;6213947;23;20363;-67
2022/03/12 09:43:11;;;;;;;14.60;9.27;;;;;;;36.78;42.23;100915.06;6211742;23;20462;-69
2022/03/12 09:45:37;;;;;;;11.43;6.47;;;;;;;36.80;41.67;100910.16;6213752;23;20431;-69
2022/03/12 09:48:05;;;;;;;19.60;8.90;;;;;;;37.04;41.20;100908.13;6187156;23;20376;-68
2022/03/12 09:50:32;;;;;;;30.27;10.43;;;;;;;37.02;42.45;100906.84;6212026;23;20839;-70
2022/03/12 09:52:58;;;;;;;17.37;9.00;;;;;;;37.23;41.71;100902.63;6212194;23;20387;-68
2022/03/12 09:55:24;;;;;;;61.40;11.30;;;;;;;37.24;40.85;100906.94;6211823;23;20517;-71
2022/03/12 09:57:51;;;;;;;22.13;8.80;;;;;;;37.41;40.49;100906.38;6211866;23;20419;-68
2022/03/12 10:00:19;;;;;;;18.57;9.67;;;;;;;37.41;40.67;100903.66;6213994;23;20371;-70
2022/03/12 10:02:46;;;;;;;31.53;9.53;;;;;;;37.43;40.54;100906.06;6213778;23;20410;-69
2022/03/12 10:05:13;;;;;;;22.20;8.43;;;;;;;37.38;41.25;100915.91;6212429;23;20466;-71
2022/03/12 10:07:43;;;;;;;18.80;8.37;;;;;;;37.25;41.77;100916.66;6213868;23;20403;-71
2022/03/12 10:10:15;;;;;;;24.37;9.43;;;;;;;37.35;41.36;100907.56;6212381;23;20395;-67
2022/03/12 10:12:46;;;;;;;16.03;9.17;;;;;;;37.49;40.63;100900.25;6187492;23;20418;-68
2022/03/12 10:15:14;;;;;;;24.47;9.60;;;;;;;37.64;40.60;100897.22;6213182;23;20492;-69
2022/03/12 10:17:41;;;;;;;21.50;8.40;;;;;;;37.48;41.40;100897.84;6209990;23;20934;-70
2022/03/12 10:20:11;;;;;;;16.40;8.07;;;;;;;37.42;41.59;100891.72;6210352;23;20402;-68
2022/03/12 10:22:42;;;;;;;13.40;8.97;;;;;;;37.13;42.09;100887.38;6211840;23;20391;-69
2022/03/12 10:25:09;;;;;;;24.57;10.40;;;;;;;37.37;42.54;100883.72;6213864;23;20364;-70
2022/03/12 10:27:36;;;;;;;16.20;7.03;;;;;;;37.11;42.39;100875.28;6212600;23;20934;-73
2022/03/12 10:30:04;;;;;;;17.57;8.03;;;;;;;37.29;41.65;100881.69;6214305;23;20407;-72
2022/03/12 10:32:41;;;;;;;13.50;9.23;;;;;;;37.37;41.32;100881.00;6213314;23;20387;-71
2022/03/12 10:35:09;;;;;;;18.73;9.50;;;;;;;37.67;41.60;100878.78;6214077;23;20437;-68
2022/03/12 10:37:36;;;;;;;21.43;8.90;;;;;;;37.63;41.06;100875.88;6213489;23;20442;-69
2022/03/12 10:40:06;;;;;;;14.03;7.10;;;;;;;37.73;41.38;100882.97;6214037;23;20394;-70
2022/03/12 10:42:34;;;;;;;16.27;8.70;;;;;;;37.80;41.50;100876.06;6214089;23;20418;-68
2022/03/12 10:45:12;;;;;;;16.07;8.10;;;;;;;37.84;41.44;100879.78;6214298;23;20383;-69
2022/03/12 10:47:43;;;;;;;14.13;8.30;;;;;;;37.94;40.71;100877.91;6213597;23;20407;-69
2022/03/12 10:50:19;;;;;;;12.20;8.03;;;;;;;37.83;40.51;100874.66;6213834;23;20390;-68
2022/03/12 10:52:49;;;;;;;16.70;10.27;;;;;;;37.52;40.97;100872.59;6213609;23;20506;-68
2022/03/12 10:55:19;;;;;;;11.00;7.00;;;;;;;37.77;40.41;100875.84;6212695;23;20458;-69
2022/03/12 10:58:12;;;;;;;27.57;11.03;;;;;;;37.81;40.37;100877.69;6214023;23;20800;-69
2022/03/12 11:00:49;;;;;;;11.20;6.30;;;;;;;37.95;40.35;100874.94;6208296;23;20863;-71
2022/03/12 11:03:21;;;;;;;11.53;7.13;;;;;;;37.94;41.29;100867.09;6215272;23;20374;-70
2022/03/12 11:05:49;;;;;;;14.00;9.10;;;;;;;37.93;41.64;100866.28;6214043;23;20388;-69
2022/03/12 11:08:17;;;;;;;12.27;8.73;;;;;;;37.80;41.59;100878.75;6214166;23;20382;-69
2022/03/12 11:10:50;;;;;;;16.47;7.50;;;;;;;37.75;41.79;100868.03;6215104;23;20367;-66
2022/03/12 11:13:44;;;;;;;15.80;10.10;;;;;;;37.86;41.18;100868.63;6215707;23;20362;-70
2022/03/12 11:16:19;;;;;;;17.60;10.30;;;;;;;38.03;40.39;100871.47;6213544;23;20512;-68
2022/03/12 11:18:51;;;;;;;13.30;7.83;;;;;;;38.08;40.33;100873.28;6213774;23;20387;-69
2022/03/12 11:21:29;;;;;;;21.07;11.20;;;;;;;37.98;40.72;100873.50;6213225;23;20453;-69
2022/03/12 11:23:58;;;;;;;14.83;10.53;;;;;;;38.11;40.40;100873.44;6214745;23;20359;-70
2022/03/12 11:26:24;;;;;;;17.10;11.53;;;;;;;37.98;40.34;100877.00;6213729;23;20409;-71
2022/03/12 11:28:56;;;;;;;18.43;9.43;;;;;;;38.14;40.63;100872.84;6212401;23;20858;-70
2022/03/12 11:31:46;;;;;;;20.83;10.80;;;;;;;38.25;39.82;100876.13;6212944;23;20495;-66
2022/03/12 11:34:30;;;;;;;23.30;11.57;;;;;;;38.33;39.68;100869.97;6213647;23;20441;-67
2022/03/12 11:36:59;;;;;;;17.83;10.77;;;;;;;38.36;39.64;100869.34;6213633;23;20518;-70
2022/03/12 11:39:48;;;;;;;24.07;15.77;;;;;;;38.26;40.00;100868.78;6214792;23;20446;-69
2022/03/12 11:42:20;;;;;;;20.00;15.20;;;;;;;38.24;40.41;100865.56;6213532;23;20445;-69
2022/03/12 11:44:56;;;;;;;19.83;14.43;;;;;;;38.30;41.07;100867.06;6213142;23;20449;-69
2022/03/12 11:47:34;;;;;;;24.30;17.10;;;;;;;38.37;40.73;100859.34;6212429;23;20928;-68
2022/03/12 11:50:08;;;;;;;27.17;17.53;;;;;;;38.43;40.47;100858.09;6209848;23;20389;-69
2022/03/12 11:52:35;;;;;;;29.17;15.23;;;;;;;38.49;40.08;100842.50;6213974;23;20403;-69
2022/03/12 11:55:03;;;;;;;35.33;17.27;;;;;;;38.57;41.04;100834.41;6212150;23;20860;-69
2022/03/12 11:57:32;;;;;;;34.13;18.40;;;;;;;38.70;40.88;100830.81;6213177;23;20400;-73
2022/03/12 11:59:59;;;;;;;30.40;18.90;;;;;;;38.90;40.19;100831.41;6213126;23;20398;-71
2022/03/12 12:02:35;;;;;;;26.10;16.43;;;;;;;38.93;40.30;100826.16;6215035;23;20371;-72
2022/03/12 12:05:08;;;;;;;23.33;16.50;;;;;;;38.87;40.37;100813.06;6212839;23;20521;-69
2022/03/12 12:07:38;;;;;;;28.20;15.77;;;;;;;38.83;40.49;100806.66;6214813;23;20385;-69
2022/03/12 12:10:07;;;;;;;27.97;18.83;;;;;;;38.76;39.48;100811.72;6212204;23;20441;-70
2022/03/12 12:12:34;;;;;;;32.33;19.20;;;;;;;38.80;39.90;100804.56;6212519;23;20863;-68
2022/03/12 12:15:04;;;;;;;22.63;15.80;;;;;;;38.50;39.24;100806.16;6212686;23;20474;-68
2022/03/12 12:17:32;;;;;;;23.53;13.50;;;;;;;38.27;39.72;100805.41;6213317;23;20449;-67
2022/03/12 12:20:03;;;;;;;37.23;17.90;;;;;;;37.88;39.71;100806.88;6212670;23;20441;-70
2022/03/12 12:22:29;;;;;;;23.27;15.17;;;;;;;38.05;39.91;100806.97;6213676;23;20430;-70
2022/03/12 12:25:01;;;;;;;19.07;14.23;;;;;;;38.04;39.74;100804.56;6214065;23;20359;-68
2022/03/12 12:27:43;;;;;;;18.57;12.07;;;;;;;38.03;39.27;100794.84;6213908;23;20423;-68
2022/03/12 12:30:16;;;;;;;23.83;11.70;;;;;;;38.40;39.38;100785.53;6190095;23;20396;-70
2022/03/12 12:32:48;;;;;;;23.43;13.60;;;;;;;38.14;39.48;100791.59;6215041;23;20371;-69
2022/03/12 12:35:18;;;;;;;21.80;14.17;;;;;;;38.25;39.48;100789.44;6213191;23;20862;-68
2022/03/12 12:37:57;;;;;;;23.10;11.70;;;;;;;38.34;38.74;100768.63;6214892;23;20443;-68
2022/03/12 12:41:03;;;;;;;21.93;14.87;;;;;;;38.35;39.77;100770.22;6211909;23;20379;-68
2022/03/12 12:43:42;;;;;;;32.33;14.40;;;;;;;38.25;38.82;100756.91;6200997;23;20387;-70
2022/03/12 12:46:19;;;;;;;18.53;14.37;;;;;;;38.40;39.00;100764.66;6187069;23;20390;-68
2022/03/12 12:48:48;;;;;;;22.17;14.67;;;;;;;38.48;38.81;100763.09;6213059;23;20449;-68
2022/03/12 12:51:22;;;;;;;28.50;14.27;;;;;;;38.72;38.06;100762.75;6212847;23;20392;-67
2022/03/12 12:53:49;;;;;;;21.87;11.77;;;;;;;38.52;38.29;100752.44;6213502;23;20375;-66
2022/03/12 12:56:23;;;;;;;29.57;15.10;;;;;;;38.75;38.43;100745.06;6212145;23;20934;-68
2022/03/12 12:58:52;;;;;;;20.20;12.57;;;;;;;39.13;38.36;100740.66;6211109;23;20839;-68
2022/03/12 13:01:21;;;;;;;26.00;13.20;;;;;;;39.34;37.77;100738.16;6211786;23;20735;-68
2022/03/12 13:03:50;;;;;;;33.13;13.13;;;;;;;39.17;37.73;100740.88;6211983;23;20463;-68
2022/03/12 13:06:40;;;;;;;22.70;12.13;;;;;;;39.15;37.52;100734.91;6186645;23;20390;-68
2022/03/12 13:09:45;;;;;;;22.17;12.63;;;;;;;39.18;37.54;100734.34;6211697;23;20875;-68
2022/03/12 13:12:12;;;;;;;19.27;12.73;;;;;;;39.38;37.87;100730.19;6198703;23;20383;-70
2022/03/12 13:14:42;;;;;;;25.83;12.10;;;;;;;39.39;38.13;100720.91;6213187;23;20484;-70
2022/03/12 13:17:11;;;;;;;26.80;15.17;;;;;;;39.22;38.04;100727.13;6214106;23;20469;-68
2022/03/12 13:19:44;;;;;;;25.03;13.00;;;;;;;39.29;38.56;100721.22;6188782;23;20380;-67
2022/03/12 13:22:16;;;;;;;20.93;13.23;;;;;;;39.27;38.47;100718.03;6214840;23;20391;-71
2022/03/12 13:24:52;;;;;;;20.97;13.00;;;;;;;39.37;38.18;100707.69;6212485;23;20379;-68
2022/03/12 13:27:29;;;;;;;19.83;13.83;;;;;;;39.13;38.58;100707.31;6186876;23;20883;-70
2022/03/12 13:30:21;;;;;;;17.67;13.60;;;;;;;39.01;38.61;100697.09;6212729;23;20747;-70
2022/03/12 13:32:51;;;;;;;20.80;12.93;;;;;;;38.94;38.57;100697.56;6211700;23;20450;-68
2022/03/12 13:35:23;;;;;;;22.93;12.53;;;;;;;38.89;38.81;100684.16;6214046;23;20386;-68
2022/03/12 13:37:51;;;;;;;24.27;12.00;;;;;;;39.12;38.88;100689.44;6213627;23;20749;-67
2022/03/12 13:40:20;;;;;;;18.70;14.40;;;;;;;39.21;38.52;100682.13;6214177;23;20368;-68
2022/03/12 13:42:49;;;;;;;19.27;12.00;;;;;;;39.31;38.32;100691.88;6212498;23;20755;-70
2022/03/12 13:45:16;;;;;;;19.50;12.87;;;;;;;39.37;38.50;100683.25;6211270;23;20454;-67
2022/03/12 13:47:43;;;;;;;22.50;13.70;;;;;;;39.37;38.27;100685.16;6210378;23;20375;-68
2022/03/12 13:50:11;;;;;;;20.53;13.23;;;;;;;39.29;38.39;100680.53;6210381;23;20454;-70
2022/03/12 13:52:37;;;;;;;27.30;12.60;;;;;;;39.37;38.16;100680.53;6185404;23;20842;-70
2022/03/12 13:55:06;;;;;;;19.70;12.43;;;;;;;39.36;38.30;100672.72;6209795;23;20379;-69
2022/03/12 13:57:35;;;;;;;25.70;14.30;;;;;;;39.37;38.05;100668.88;6211171;23;20998;-69
2022/03/12 14:00:09;;;;;;;33.10;13.90;;;;;;;39.33;37.88;100665.22;6211503;23;20383;-70
2022/03/12 14:02:44;;;;;;;18.57;13.40;;;;;;;39.34;38.04;100661.38;6188595;23;20951;-68
2022/03/12 14:05:18;;;;;;;27.00;14.50;;;;;;;39.37;37.55;100666.97;6187448;23;20827;-71
2022/03/12 14:07:45;;;;;;;28.23;15.57;;;;;;;39.31;37.78;100653.88;6212572;23;20413;-68
2022/03/12 14:10:12;;;;;;;33.10;17.00;;;;;;;39.37;37.82;100660.75;6212367;23;20714;-68
2022/03/12 14:12:38;;;;;;;29.40;16.57;;;;;;;39.35;37.96;100655.66;6214177;23;20364;-70
2022/03/12 14:15:05;;;;;;;37.40;15.40;;;;;;;39.33;38.30;100660.56;6212448;23;20422;-69
2022/03/12 14:17:32;;;;;;;28.60;14.30;;;;;;;39.23;38.98;100653.59;6212013;23;20487;-67
2022/03/12 14:20:08;;;;;;;23.53;15.47;;;;;;;39.29;38.41;100659.66;6210326;23;20395;-70
2022/03/12 14:22:37;;;;;;;23.70;17.60;;;;;;;39.28;38.61;100662.66;6211211;23;20382;-68
2022/03/12 14:25:05;;;;;;;29.63;16.50;;;;;;;39.28;38.73;100663.44;6212510;23;20381;-68
2022/03/12 14:27:34;;;;;;;30.07;18.37;;;;;;;39.27;38.93;100661.84;6212038;23;20514;-70
2022/03/12 14:30:01;;;;;;;28.03;18.03;;;;;;;39.35;38.82;100665.69;6212373;23;20467;-69
2022/03/12 14:32:28;;;;;;;33.07;17.40;;;;;;;39.40;39.19;100660.09;6213951;23;20364;-67
2022/03/12 14:34:56;;;;;;;28.10;18.00;;;;;;;39.43;38.81;100668.41;6212398;23;20467;-67
2022/03/12 14:37:23;;;;;;;28.10;17.00;;;;;;;39.44;38.96;100667.28;6212307;23;20966;-70
2022/03/12 14:39:50;;;;;;;32.87;18.80;;;;;;;39.37;39.08;100653.41;6212208;23;20855;-70
2022/03/12 14:42:18;;;;;;;35.93;19.80;;;;;;;39.31;39.17;100653.88;6212244;23;20882;-70
2022/03/12 14:44:52;;;;;;;30.20;21.47;;;;;;;39.20;39.89;100654.19;6211290;23;20735;-67
2022/03/12 14:47:18;;;;;;;29.20;17.80;;;;;;;39.31;39.17;100648.47;6213979;23;20831;-70
2022/03/12 14:49:51;;;;;;;29.17;17.40;;;;;;;39.29;39.35;100656.94;6212246;23;20860;-67
2022/03/12 14:52:27;;;;;;;23.83;18.10;;;;;;;39.17;39.54;100656.78;6212339;23;20379;-69
2022/03/12 14:54:57;;;;;;;29.53;16.37;;;;;;;39.19;39.66;100666.19;6213634;23;20538;-69
2022/03/12 14:57:26;;;;;;;31.27;18.50;;;;;;;39.22;39.60;100662.81;6213832;23;20415;-69
2022/03/12 14:59:53;;;;;;;29.13;16.03;;;;;;;39.27;39.65;100659.16;6212090;23;20394;-69
2022/03/12 15:02:21;;;;;;;26.73;14.40;;;;;;;39.27;39.22;100661.84;6212153;23;20407;-70
2022/03/12 15:04:55;;;;;;;21.30;13.07;;;;;;;39.22;39.06;100662.81;6187415;23;20387;-70
2022/03/12 15:07:22;;;;;;;20.53;12.63;;;;;;;39.20;39.36;100658.84;6212316;23;20390;-69
2022/03/12 15:10:02;;;;;;;19.47;12.60;;;;;;;39.16;39.18;100657.88;6212412;23;20383;-68
2022/03/12 15:12:40;;;;;;;15.93;9.67;;;;;;;39.19;39.08;100660.75;6212480;23;20458;-70
2022/03/12 15:15:15;;;;;;;17.30;9.47;;;;;;;39.19;38.91;100666.19;6214002;23;20391;-70
2022/03/12 15:17:43;;;;;;;15.07;9.93;;;;;;;39.20;39.01;100667.78;6214025;23;20481;-70
2022/03/12 15:20:21;;;;;;;14.10;9.00;;;;;;;39.18;38.65;100653.72;6164649;23;20791;-70
2022/03/12 15:22:49;;;;;;;22.60;9.20;;;;;;;39.26;38.56;100648.63;6213791;23;20417;-68
2022/03/12 15:25:16;;;;;;;21.60;10.40;;;;;;;39.26;38.65;100646.69;6189234;23;20394;-68
2022/03/12 15:27:52;;;;;;;18.00;9.00;;;;;;;39.27;38.28;100639.34;6188540;23;20931;-68
2022/03/12 15:30:18;;;;;;;18.30;9.20;;;;;;;39.40;38.39;100649.22;6190755;23;20383;-68
2022/03/12 15:32:49;;;;;;;18.83;8.20;;;;;;;39.43;37.95;100645.91;6213830;23;20441;-70
2022/03/12 15:35:15;;;;;;;20.37;8.43;;;;;;;39.44;38.44;100655.63;6189830;23;20886;-68
2022/03/12 15:37:44;;;;;;;19.60;9.00;;;;;;;39.45;38.53;100654.50;6213673;23;20380;-67
2022/03/12 15:40:17;;;;;;;23.53;11.07;;;;;;;39.29;39.71;100656.09;6213215;23;20383;-70
2022/03/12 15:42:46;;;;;;;16.57;7.80;;;;;;;39.40;39.16;100660.88;6189482;23;20820;-68
2022/03/12 15:45:15;;;;;;;20.43;9.13;;;;;;;39.52;39.11;100671.09;6164783;23;20732;-68
2022/03/12 15:47:42;;;;;;;16.20;7.67;;;;;;;39.59;38.64;100667.88;6214017;23;20391;-70
2022/03/12 15:50:13;;;;;;;20.90;8.43;;;;;;;39.69;38.09;100668.38;6213722;23;20383;-68
2022/03/12 15:52:45;;;;;;;13.60;7.17;;;;;;;39.66;38.05;100671.75;6189569;23;20391;-68
2022/03/12 15:55:12;;;;;;;26.00;9.60;;;;;;;39.65;37.77;100670.13;6213706;23;20383;-71
2022/03/12 15:57:39;;;;;;;11.93;8.00;;;;;;;39.61;38.23;100669.22;6214266;23;20419;-70
2022/03/12 16:00:08;;;;;;;14.80;8.00;;;;;;;39.47;38.35;100665.81;6215990;23;20363;-67
2022/03/12 16:02:35;;;;;;;15.17;10.03;;;;;;;39.55;38.26;100669.66;6164569;23;20415;-67
2022/03/12 16:05:02;;;;;;;13.77;8.20;;;;;;;39.69;38.33;100668.38;6213734;23;20388;-70
2022/03/12 16:07:30;;;;;;;13.37;8.20;;;;;;;39.74;38.18;100675.56;6214831;23;20448;-68
2022/03/12 16:09:56;;;;;;;15.90;7.37;;;;;;;39.70;38.11;100683.53;6213678;23;20383;-69
2022/03/12 16:12:22;;;;;;;11.73;7.97;;;;;;;39.70;37.98;100688.97;6213709;23;20917;-67
2022/03/12 16:14:49;;;;;;;16.33;6.47;;;;;;;39.72;37.83;100686.75;6215867;23;20399;-67
2022/03/12 16:17:16;;;;;;;22.53;7.93;;;;;;;39.79;37.60;100680.03;6164346;23;20427;-70
2022/03/12 16:19:43;;;;;;;16.13;7.73;;;;;;;39.82;37.61;100682.09;6215084;23;20411;-70
2022/03/12 16:22:11;;;;;;;14.00;8.83;;;;;;;39.82;37.58;100685.59;6213237;23;20887;-67
2022/03/12 16:24:37;;;;;;;13.00;7.30;;;;;;;39.88;37.23;100694.38;6213286;23;20382;-67
2022/03/12 16:27:05;;;;;;;23.50;8.07;;;;;;;39.84;37.13;100699.66;6213029;23;20421;-67
2022/03/12 16:29:31;;;;;;;14.50;6.63;;;;;;;39.86;37.35;100696.63;6213118;23;20469;-67
2022/03/12 16:31:58;;;;;;;17.50;7.93;;;;;;;39.87;37.66;100698.22;6213273;23;20383;-68
2022/03/12 16:34:24;;;;;;;15.13;6.87;;;;;;;39.85;37.56;100701.25;6213179;23;20410;-68
2022/03/12 16:36:51;;;;;;;13.00;7.30;;;;;;;39.83;37.24;100699.97;6214702;23;20407;-70
2022/03/12 16:39:17;;;;;;;13.70;8.80;;;;;;;39.77;37.59;100699.34;6213034;23;20750;-70
2022/03/12 16:41:44;;;;;;;11.47;5.73;;;;;;;39.80;37.56;100708.78;6213056;23;20380;-68
2022/03/12 16:44:14;;;;;;;16.20;7.87;;;;;;;39.82;37.85;100701.91;6188394;23;20403;-70
2022/03/12 16:46:40;;;;;;;13.33;7.90;;;;;;;39.80;37.89;100711.50;6212974;23;20403;-70
2022/03/12 16:49:14;;;;;;;14.43;7.13;;;;;;;39.75;37.90;100721.41;6213098;23;20736;-70
2022/03/12 16:51:42;;;;;;;16.23;6.40;;;;;;;39.74;37.77;100727.94;6214665;23;20406;-70
2022/03/12 16:54:08;;;;;;;11.63;7.33;;;;;;;39.72;37.56;100724.78;6188148;23;20525;-70
2022/03/12 16:56:34;;;;;;;20.30;7.70;;;;;;;39.66;38.06;100726.06;6213016;23;20430;-70
2022/03/12 16:59:00;;;;;;;16.63;8.13;;;;;;;39.59;38.06;100720.25;6214434;23;20395;-68
2022/03/12 17:01:27;;;;;;;15.60;7.80;;;;;;;39.54;38.15;100722.38;6213053;23;20449;-67
2022/03/12 17:03:55;;;;;;;21.93;8.67;;;;;;;39.60;37.84;100726.50;6213071;23;20407;-67
2022/03/12 17:06:21;;;;;;;20.80;7.73;;;;;;;39.55;38.05;100723.97;6212719;23;20371;-67
2022/03/12 17:08:47;;;;;;;20.83;8.27;;;;;;;39.51;38.24;100721.06;6213143;23;20448;-69
2022/03/12 17:11:16;;;;;;;13.10;7.70;;;;;;;39.54;38.17;100722.38;6213000;23;20379;-69
2022/03/12 17:13:43;;;;;;;14.90;8.23;;;;;;;39.40;38.49;100720.59;6213012;23;20390;-69
2022/03/12 17:16:10;;;;;;;12.90;8.03;;;;;;;39.39;38.58;100720.91;6214274;23;20453;-67
2022/03/12 17:18:40;;;;;;;17.03;8.67;;;;;;;39.38;38.74;100724.75;6212801;23;20407;-67
2022/03/12 17:21:06;;;;;;;17.73;8.23;;;;;;;39.39;38.65;100726.34;6212854;23;20728;-67
2022/03/12 17:23:33;;;;;;;13.87;6.10;;;;;;;39.32;38.65;100726.03;6213159;23;20825;-67
2022/03/12 17:26:00;;;;;;;16.33;8.00;;;;;;;39.24;38.84;100730.34;6212773;23;20383;-68
2022/03/12 17:46:30;;;;;;;13.23;8.33;;;;;;;36.67;45.56;100741.47;5172021;27;20485;-65
2022/03/12 17:48:56;;;;;;;16.93;8.03;;;;;;;37.78;42.66;100737.47;5151047;27;20833;-67
2022/03/12 17:51:25;;;;;;;18.00;6.83;;;;;;;38.37;41.40;100745.53;5133063;27;20489;-68
2022/03/12 17:53:53;;;;;;;25.60;9.20;;;;;;;38.64;40.70;100739.88;5132404;27;20437;-69
2022/03/12 17:56:23;;;;;;;22.30;9.43;;;;;;;38.81;40.92;100735.66;5132574;27;20445;-67
2022/03/12 17:58:55;;;;;;;17.70;9.33;;;;;;;38.90;40.39;100741.91;5132173;27;20406;-66
2022/03/12 18:01:25;;;;;;;28.83;11.20;;;;;;;38.89;40.24;100737.59;5132170;27;20398;-66
2022/03/12 18:03:56;;;;;;;19.53;9.07;;;;;;;38.87;40.21;100742.56;5132232;27;20410;-66
2022/03/12 18:06:23;;;;;;;21.77;9.60;;;;;;;38.86;40.63;100743.66;5150453;27;20442;-65
2022/03/12 18:08:49;;;;;;;14.90;8.67;;;;;;;38.86;40.37;100743.66;5132154;27;21093;-65